Time;durP1;ratioP1;P1;durP2;ratioP2;P2;SDS_P1;SDS_P2;PMS_P1;PMS_P2;Temp;Humidity;BMP_temperature;BMP_pressure;BME280_temperature;BME280_humidity;BME280_pressure;Samples;Min_cycle;Max_cycle;Signal;HPM_P1;HPM_P2
2022/07/13 00:00:08;;;;;;;5.75;0.93;;;;;;;19.61;38.03;100249.66;7685575;32;38708;-75
2022/07/13 00:04:24;;;;;;;1.45;0.80;;;;;;;19.27;38.92;100253.13;7685631;32;37991;-75
2022/07/13 00:08:40;;;;;;;1.67;0.95;;;;;;;19.18;39.16;100249.50;7684948;32;39329;-76
2022/07/13 00:12:56;;;;;;;1.67;0.90;;;;;;;19.21;39.04;100252.44;7685464;32;40785;-75
2022/07/13 00:17:13;;;;;;;1.15;1.05;;;;;;;19.27;38.89;100247.59;7685188;32;38727;-75
2022/07/13 00:21:29;;;;;;;1.17;1.00;;;;;;;19.16;39.32;100249.00;7685494;32;37155;-75
2022/07/13 00:25:47;;;;;;;2.78;1.02;;;;;;;19.11;39.41;100250.78;7685388;32;39353;-75
2022/07/13 00:30:03;;;;;;;7.12;1.30;;;;;;;19.29;39.01;100240.59;7685117;32;40063;-75
2022/07/13 00:34:19;;;;;;;1.58;0.88;;;;;;;18.93;40.03;100244.34;7696465;32;38724;-76
2022/07/13 00:38:36;;;;;;;3.40;1.20;;;;;;;19.03;39.60;100240.50;7684930;32;37010;-75
2022/07/13 00:42:52;;;;;;;3.80;1.15;;;;;;;19.20;39.21;100230.66;7685259;32;39128;-76
2022/07/13 00:47:09;;;;;;;1.70;1.00;;;;;;;19.22;39.11;100239.44;7685189;32;39960;-74
2022/07/13 00:51:25;;;;;;;2.78;1.30;;;;;;;19.14;39.28;100229.97;7684946;32;38010;-75
2022/07/13 00:55:41;;;;;;;6.50;0.73;;;;;;;18.80;40.37;100230.56;7696419;32;37507;-74
2022/07/13 00:59:57;;;;;;;0.95;0.80;;;;;;;18.88;40.02;100235.38;7685060;32;39328;-74
2022/07/13 01:04:13;;;;;;;1.48;0.95;;;;;;;19.00;39.65;100216.25;7696234;32;40731;-74
2022/07/13 01:08:30;;;;;;;7.55;1.05;;;;;;;18.97;39.91;100222.41;7684430;32;38062;-75
2022/07/13 01:12:46;;;;;;;1.75;0.95;;;;;;;18.65;40.86;100220.75;7696162;32;36582;-75
2022/07/13 01:17:02;;;;;;;2.60;1.00;;;;;;;18.58;40.72;100222.00;7684873;32;39105;-75
2022/07/13 01:21:19;;;;;;;1.40;0.80;;;;;;;18.69;40.56;100230.84;7684021;32;39801;-75
2022/07/13 01:25:35;;;;;;;4.32;1.17;;;;;;;18.55;41.11;100224.59;7683870;32;38026;-75
2022/07/13 01:29:52;;;;;;;3.15;1.10;;;;;;;18.47;41.57;100233.63;7684285;32;37813;-75
2022/07/13 01:34:09;;;;;;;1.33;1.02;;;;;;;18.47;41.61;100226.19;7684618;32;40064;-76
2022/07/13 01:38:25;;;;;;;1.12;1.00;;;;;;;18.44;42.03;100217.69;7684450;32;40036;-74
2022/07/13 01:42:43;;;;;;;2.87;1.33;;;;;;;18.42;42.12;100211.66;7695609;32;38643;-75
2022/07/13 01:47:06;;;;;;;0.77;0.77;;;;;;;18.36;42.62;100211.00;7684367;32;37225;-74
2022/07/13 01:51:23;;;;;;;4.12;1.40;;;;;;;18.30;43.03;100209.47;7684133;32;39502;-75
2022/07/13 01:55:39;;;;;;;3.30;0.98;;;;;;;18.04;43.99;100209.25;7684254;32;39992;-75
2022/07/13 02:00:06;;;;;;;2.97;1.23;;;;;;;18.15;43.73;100203.19;7684032;32;38732;-74
2022/07/13 02:04:22;;;;;;;2.35;1.10;;;;;;;18.22;43.44;100208.28;7683727;32;37041;-74
2022/07/13 02:08:39;;;;;;;1.20;1.10;;;;;;;18.15;43.51;100205.16;7683886;32;40188;-73
2022/07/13 02:12:55;;;;;;;1.10;0.90;;;;;;;18.16;43.46;100215.03;7683797;32;40000;-74
2022/07/13 02:17:12;;;;;;;2.15;1.08;;;;;;;18.00;44.08;100218.16;7683509;32;38729;-74
2022/07/13 02:21:28;;;;;;;1.87;1.12;;;;;;;18.02;44.04;100204.91;7683664;32;37071;-74
2022/07/13 02:30:10;;;;;;;1.83;1.05;;;;;;;17.74;45.80;100193.06;7795709;27;20101;-75
2022/07/13 02:34:29;;;;;;;1.05;0.93;;;;;;;17.86;46.75;100191.72;7736719;32;37881;-75
2022/07/13 02:38:45;;;;;;;5.20;1.27;;;;;;;17.78;47.80;100199.63;7738809;32;36830;-74
2022/07/13 02:43:01;;;;;;;2.92;1.08;;;;;;;17.61;48.54;100194.75;7740144;32;39288;-74
2022/07/13 02:47:18;;;;;;;2.33;1.20;;;;;;;17.60;48.44;100193.09;7739726;32;39878;-74
2022/07/13 02:51:35;;;;;;;0.95;0.95;;;;;;;17.43;49.19;100198.44;7739809;32;37990;-73
2022/07/13 02:55:51;;;;;;;1.15;1.05;;;;;;;17.34;49.52;100206.63;7739934;32;37067;-74
2022/07/13 03:00:08;;;;;;;1.20;1.10;;;;;;;17.12;49.57;100204.56;7739904;32;39311;-74
2022/07/13 03:04:24;;;;;;;1.33;1.23;;;;;;;17.02;47.79;100199.25;7739747;32;40817;-74
2022/07/13 03:08:40;;;;;;;2.20;1.00;;;;;;;17.05;47.32;100204.16;7739634;32;38733;-74
2022/07/13 03:12:57;;;;;;;4.00;1.60;;;;;;;17.53;46.02;100206.50;7739710;32;37004;-74
2022/07/13 03:17:13;;;;;;;2.60;1.12;;;;;;;17.59;45.57;100210.78;7739463;32;40135;-75
2022/07/13 03:21:29;;;;;;;1.10;1.10;;;;;;;17.68;45.19;100215.56;7739597;32;39717;-74
2022/07/13 03:25:45;;;;;;;4.55;1.20;;;;;;;17.44;47.12;100211.13;7739148;32;37710;-75
2022/07/13 03:30:01;;;;;;;3.45;1.52;;;;;;;17.23;48.16;100211.53;7739362;32;37098;-74
2022/07/13 03:34:18;;;;;;;3.22;1.20;;;;;;;17.37;47.29;100218.97;7739232;32;39366;-74
2022/07/13 03:38:34;;;;;;;7.10;1.30;;;;;;;17.38;47.06;100229.66;7739345;32;40009;-74
2022/07/13 03:42:50;;;;;;;1.60;1.33;;;;;;;17.46;47.36;100222.63;7739186;32;37915;-74
2022/07/13 03:47:07;;;;;;;5.37;1.67;;;;;;;17.46;47.41;100230.91;7739281;32;37845;-74
2022/07/13 03:51:23;;;;;;;1.23;1.12;;;;;;;17.45;48.12;100232.03;7738697;32;39153;-74
2022/07/13 03:55:40;;;;;;;2.00;1.08;;;;;;;17.43;48.21;100224.06;7739281;32;40164;-74
2022/07/13 03:59:56;;;;;;;3.08;1.30;;;;;;;17.55;48.06;100220.78;7739112;32;37930;-74
2022/07/13 04:04:12;;;;;;;2.30;1.12;;;;;;;17.54;48.11;100221.09;7738815;32;37782;-75
2022/07/13 04:08:29;;;;;;;1.80;1.27;;;;;;;17.50;48.40;100220.88;7739008;32;40183;-75
2022/07/13 04:12:45;;;;;;;3.33;1.15;;;;;;;17.61;48.34;100222.31;7739247;32;41522;-75
2022/07/13 04:17:01;;;;;;;2.22;1.23;;;;;;;17.72;48.06;100219.34;7738838;32;37941;-75
2022/07/13 04:21:17;;;;;;;2.90;1.20;;;;;;;17.68;48.13;100216.37;7738656;32;37928;-74
2022/07/13 04:25:34;;;;;;;4.68;1.60;;;;;;;17.96;47.34;100219.13;7738880;32;40043;-75
2022/07/13 04:29:50;;;;;;;2.78;1.30;;;;;;;18.02;47.29;100215.94;7738597;32;39925;-74
2022/07/13 04:34:06;;;;;;;5.15;1.60;;;;;;;18.08;47.09;100204.78;7738518;32;38556;-74
2022/07/13 04:38:22;;;;;;;3.22;1.45;;;;;;;18.22;46.45;100221.28;7738717;32;36968;-74
2022/07/13 04:42:38;;;;;;;2.95;1.73;;;;;;;18.27;45.95;100224.72;7738435;32;39321;-75
2022/07/13 04:46:54;;;;;;;2.95;1.65;;;;;;;18.27;45.90;100221.97;7738586;32;39947;-75
2022/07/13 04:51:10;;;;;;;4.57;1.50;;;;;;;18.25;45.71;100226.97;7738401;32;38019;-74
2022/07/13 04:55:26;;;;;;;12.55;1.90;;;;;;;18.28;45.63;100236.56;7738543;32;37003;-75
2022/07/13 04:59:42;;;;;;;6.32;1.70;;;;;;;18.39;45.29;100219.44;7737879;32;39337;-75
2022/07/13 05:03:59;;;;;;;6.82;2.05;;;;;;;18.63;44.85;100218.31;7737453;32;40030;-75
2022/07/13 05:08:15;;;;;;;7.40;1.85;;;;;;;18.63;44.56;100223.84;7738316;32;37777;-75
2022/07/13 05:12:32;;;;;;;12.95;1.87;;;;;;;18.73;44.47;100217.22;7738019;32;37110;-75
2022/07/13 05:16:48;;;;;;;4.47;1.35;;;;;;;19.00;43.81;100221.78;7738199;32;39529;-75
2022/07/13 05:21:05;;;;;;;1.62;1.20;;;;;;;19.03;41.96;100226.69;7738232;32;40765;-75
2022/07/13 05:25:21;;;;;;;1.50;1.40;;;;;;;19.43;41.13;100218.38;7737669;32;37913;-76
2022/07/13 05:29:37;;;;;;;2.15;1.48;;;;;;;19.45;41.54;100213.31;7737887;32;36765;-76
2022/07/13 05:33:53;;;;;;;3.60;1.35;;;;;;;19.73;40.99;100212.25;7737989;32;39387;-75
2022/07/13 05:38:09;;;;;;;3.75;1.75;;;;;;;19.76;41.26;100206.91;7737960;32;39878;-74
2022/07/13 05:42:28;;;;;;;2.92;1.40;;;;;;;19.80;41.14;100215.38;7737814;32;37920;-74
2022/07/13 05:46:44;;;;;;;6.20;1.50;;;;;;;19.98;40.75;100207.91;7737311;32;37082;-74
2022/07/13 05:51:01;;;;;;;4.43;1.50;;;;;;;19.96;40.17;100201.91;7737476;32;40011;-74
2022/07/13 05:55:37;;;;;;;3.50;1.60;;;;;;;20.09;40.51;100206.44;7737179;32;40331;-75
2022/07/13 05:59:53;;;;;;;6.57;1.80;;;;;;;19.75;41.25;100212.75;7737147;32;38644;-76
2022/07/13 06:04:09;;;;;;;2.37;1.50;;;;;;;20.13;39.89;100207.44;7737301;32;36806;-76
2022/07/13 06:08:25;;;;;;;4.70;1.70;;;;;;;19.63;40.83;100208.66;7737649;32;39623;-76
2022/07/13 06:12:41;;;;;;;2.70;1.40;;;;;;;19.97;40.28;100214.59;7736582;32;40573;-78
2022/07/13 06:16:57;;;;;;;1.70;1.35;;;;;;;19.81;39.97;100214.25;7737179;32;38538;-76
2022/07/13 06:21:13;;;;;;;4.07;1.55;;;;;;;19.52;40.79;100216.47;7737183;32;36866;-75
2022/07/13 06:25:29;;;;;;;5.97;1.60;;;;;;;20.16;39.28;100208.72;7737125;32;39076;-73
2022/07/13 06:29:45;;;;;;;4.62;1.23;;;;;;;20.45;38.84;100219.13;7736753;32;39741;-73
2022/07/13 06:34:01;;;;;;;1.27;1.17;;;;;;;20.92;38.10;100222.00;7736650;32;37911;-73
2022/07/13 06:38:17;;;;;;;7.70;1.60;;;;;;;21.00;37.40;100229.44;7736697;32;37044;-75
2022/07/13 06:42:33;;;;;;;4.22;1.40;;;;;;;20.98;37.50;100226.19;7736446;32;39899;-75
2022/07/13 06:46:49;;;;;;;3.10;1.30;;;;;;;21.28;37.23;100222.66;7736373;32;40599;-76
2022/07/13 06:51:06;;;;;;;3.42;1.60;;;;;;;21.23;37.00;100223.69;7748551;32;37188;-75
2022/07/13 06:55:22;;;;;;;2.40;1.52;;;;;;;21.46;36.65;100215.06;7736418;32;37176;-75
2022/07/13 06:59:38;;;;;;;4.37;1.60;;;;;;;21.72;36.92;100207.41;7736035;32;40170;-74
2022/07/13 07:03:54;;;;;;;2.92;1.60;;;;;;;21.56;36.83;100203.63;7736252;32;40115;-73
2022/07/13 07:08:10;;;;;;;4.25;1.40;;;;;;;21.74;36.99;100199.56;7735920;32;38078;-75
2022/07/13 07:12:26;;;;;;;4.35;1.30;;;;;;;22.01;36.14;100202.97;7735546;32;37127;-77
2022/07/13 07:16:42;;;;;;;5.78;1.30;;;;;;;22.61;34.65;100192.47;7735752;32;39409;-76
2022/07/13 07:21:00;;;;;;;1.58;1.05;;;;;;;22.85;33.71;100183.37;7735649;32;39669;-77
2022/07/13 07:25:16;;;;;;;2.70;0.98;;;;;;;22.69;34.61;100185.19;7736121;32;35948;-75
2022/07/13 07:29:32;;;;;;;3.37;1.17;;;;;;;22.79;34.42;100165.28;7738858;32;37024;-74
2022/07/13 07:33:49;;;;;;;2.55;1.17;;;;;;;23.46;33.06;100170.66;7739194;32;39266;-74
2022/07/13 07:38:05;;;;;;;1.37;1.00;;;;;;;23.59;32.76;100163.94;7726196;32;41159;-74
2022/07/13 07:42:21;;;;;;;3.20;1.30;;;;;;;23.81;32.63;100161.81;7739550;32;36116;-78
2022/07/13 07:46:37;;;;;;;1.58;1.10;;;;;;;23.55;32.59;100160.22;7738370;32;36720;-76
2022/07/13 07:50:53;;;;;;;3.62;1.00;;;;;;;23.54;32.44;100155.81;7737570;32;39141;-76
2022/07/13 07:55:09;;;;;;;2.28;1.05;;;;;;;24.47;31.79;100142.94;7738075;32;39679;-76
2022/07/13 07:59:26;;;;;;;1.25;1.15;;;;;;;24.72;30.93;100138.87;7738864;32;38029;-76
2022/07/13 08:03:42;;;;;;;3.62;1.00;;;;;;;24.56;31.49;100146.44;7738781;32;37274;-76
2022/07/13 08:07:58;;;;;;;3.97;1.12;;;;;;;24.33;32.50;100146.97;7735551;32;40004;-76
2022/07/13 08:12:14;;;;;;;6.60;1.50;;;;;;;25.39;31.00;100145.66;7735530;32;40120;-76
2022/07/13 08:16:30;;;;;;;1.48;0.82;;;;;;;24.87;31.57;100148.41;7735849;32;37664;-76
2022/07/13 08:20:47;;;;;;;1.80;0.90;;;;;;;25.58;29.79;100133.75;7737453;32;37512;-76
2022/07/13 08:25:03;;;;;;;2.37;0.90;;;;;;;25.48;30.06;100140.69;7738997;32;39388;-75
2022/07/13 08:29:19;;;;;;;1.65;0.95;;;;;;;25.92;29.53;100132.06;7738566;32;40634;-76
2022/07/13 08:42:56;;;;;;;3.70;1.00;;;;;;;25.91;28.14;100126.88;7730773;32;39177;-78
2022/07/13 08:47:13;;;;;;;4.25;0.98;;;;;;;25.93;28.41;100128.09;7738052;32;39904;-76
2022/07/13 08:51:35;;;;;;;2.78;0.95;;;;;;;26.02;28.54;100130.69;7738569;32;38070;-77
2022/07/13 08:55:51;;;;;;;4.10;1.00;;;;;;;25.98;28.69;100124.25;7738587;32;37315;-76
2022/07/13 09:00:10;;;;;;;9.57;1.50;;;;;;;26.86;27.66;100123.47;7737388;32;39113;-76
2022/07/13 09:04:27;;;;;;;4.35;1.00;;;;;;;27.13;27.67;100115.91;7737892;32;39977;-77
2022/07/13 09:08:44;;;;;;;1.62;0.82;;;;;;;27.32;26.95;100117.81;7738212;32;37905;-81
2022/07/13 09:13:00;;;;;;;6.37;0.90;;;;;;;27.69;26.15;100113.50;7737437;32;37850;-75
2022/07/13 09:17:39;;;;;;;3.85;1.10;;;;;;;27.83;25.80;100107.28;7749183;32;40190;-75
2022/07/13 09:22:15;;;;;;;2.92;1.10;;;;;;;27.84;25.89;100108.91;7737140;32;40581;-75
2022/07/13 09:26:42;;;;;;;1.40;1.20;;;;;;;28.14;25.93;100102.47;7737738;32;37610;-75
2022/07/13 09:31:01;;;;;;;3.00;1.30;;;;;;;26.73;27.79;100099.66;7737600;32;38011;-75
2022/07/13 09:35:17;;;;;;;2.08;0.98;;;;;;;27.12;27.18;100085.50;7737720;32;39164;-76
2022/07/13 09:39:33;;;;;;;2.85;1.12;;;;;;;27.19;27.62;100085.59;7737858;32;40609;-75
2022/07/13 09:48:30;;;;;;;2.45;0.85;;;;;;;27.09;25.92;100077.84;7735834;32;37991;-76
2022/07/13 09:52:47;;;;;;;0.85;0.82;;;;;;;27.65;25.09;100073.47;7734214;32;39294;-75
2022/07/13 09:57:08;;;;;;;2.25;1.02;;;;;;;27.35;26.24;100082.66;7734328;32;40505;-74
2022/07/13 10:01:25;;;;;;;1.52;0.93;;;;;;;28.33;25.33;100056.59;7745437;32;38331;-76
2022/07/13 10:05:42;;;;;;;1.67;0.80;;;;;;;28.81;24.90;100054.63;7746822;32;37473;-76
2022/07/13 10:09:58;;;;;;;0.70;0.68;;;;;;;28.54;25.79;100070.00;7737381;32;39325;-75
2022/07/13 10:14:15;;;;;;;8.57;1.65;;;;;;;29.45;23.61;100052.62;7737176;32;39905;-76
2022/07/13 10:18:35;;;;;;;1.65;0.82;;;;;;;29.54;23.24;100053.06;7748747;32;38028;-76
2022/07/13 10:22:51;;;;;;;3.15;0.90;;;;;;;29.73;22.79;100051.91;7748220;32;37256;-77
2022/07/13 10:27:28;;;;;;;6.43;1.35;;;;;;;29.83;22.03;100056.00;7748293;32;39581;-76
2022/07/13 10:31:57;;;;;;;2.10;0.80;;;;;;;30.36;21.42;100044.09;7736649;32;39955;-77
2022/07/13 10:36:13;;;;;;;0.73;0.73;;;;;;;30.25;21.65;100046.03;7736801;32;37988;-76
2022/07/13 10:40:31;;;;;;;3.28;0.70;;;;;;;30.02;21.23;100030.34;7736377;32;37005;-76
2022/07/13 10:44:47;;;;;;;5.68;0.73;;;;;;;29.56;21.34;100031.81;7736595;32;39231;-74
2022/07/13 10:49:23;;;;;;;8.80;1.10;;;;;;;29.89;21.45;100038.34;7736011;32;40389;-75
2022/07/13 10:53:42;;;;;;;2.95;0.88;;;;;;;30.19;20.72;100039.22;7745608;32;35790;-74
2022/07/13 10:57:58;;;;;;;6.60;1.25;;;;;;;30.12;20.18;100046.44;7736259;32;38162;-74
2022/07/13 11:02:50;;;;;;;1.70;0.77;;;;;;;30.89;20.80;100042.41;7739620;32;39384;-75
2022/07/13 11:07:08;;;;;;;5.15;1.10;;;;;;;31.50;19.44;100035.88;7739778;32;40129;-74
2022/07/13 11:11:29;;;;;;;3.00;1.20;;;;;;;32.04;18.40;100041.22;7739648;32;38029;-75
2022/07/13 11:15:49;;;;;;;3.12;0.90;;;;;;;30.62;19.40;100042.88;7739843;32;37010;-76
2022/07/13 11:20:14;;;;;;;1.55;0.90;;;;;;;30.48;20.18;100045.69;7739420;32;39973;-75
2022/07/13 11:29:29;;;;;;;2.75;0.73;;;;;;;31.25;20.10;100017.84;7748660;32;38054;-75
2022/07/13 11:33:52;;;;;;;3.17;0.90;;;;;;;31.33;19.73;100007.34;7738407;32;37584;-76
2022/07/13 11:38:08;;;;;;;3.28;0.98;;;;;;;31.47;18.93;100008.50;7738960;32;40147;-76
2022/07/13 11:42:24;;;;;;;0.88;0.70;;;;;;;31.54;18.10;100026.19;7736570;32;39943;-75
2022/07/13 11:46:45;;;;;;;2.12;0.93;;;;;;;32.08;17.17;100009.00;7735132;32;38750;-75
2022/07/13 11:51:08;;;;;;;4.20;1.17;;;;;;;31.55;17.84;100027.00;7749668;32;36936;-76
2022/07/13 11:55:24;;;;;;;4.22;0.93;;;;;;;31.95;17.48;100016.31;7748560;32;39971;-76
2022/07/13 11:59:44;;;;;;;1.20;0.60;;;;;;;31.28;18.27;100013.41;7738356;32;39838;-76
2022/07/13 12:04:00;;;;;;;1.80;0.90;;;;;;;31.36;17.66;100014.97;7737035;32;38676;-75
2022/07/13 12:08:17;;;;;;;2.08;0.80;;;;;;;31.95;18.20;100010.69;7737995;32;37861;-75
2022/07/13 12:12:37;;;;;;;0.68;0.68;;;;;;;31.94;17.05;100009.06;7736888;32;39016;-87
2022/07/13 12:16:53;;;;;;;2.10;0.62;;;;;;;31.47;17.85;100002.87;7745993;32;39768;-86
2022/07/13 12:21:10;;;;;;;1.50;0.85;;;;;;;31.30;18.29;100008.16;7734517;32;37642;-87
2022/07/13 12:25:34;;;;;;;2.67;0.90;;;;;;;31.37;17.33;100007.31;7735504;32;37303;-76
2022/07/13 12:29:52;;;;;;;1.65;1.00;;;;;;;32.04;17.54;99996.91;7734526;32;40775;-76
2022/07/13 12:34:07;;;;;;;5.55;1.02;;;;;;;31.64;18.37;99985.09;7728709;32;39969;-79
2022/07/13 12:38:30;;;;;;;7.90;1.20;;;;;;;32.44;17.11;99983.31;7738064;32;37735;-74
2022/07/13 12:42:47;;;;;;;5.25;0.77;;;;;;;32.44;17.70;99985.34;7737600;32;37037;-76
2022/07/13 12:47:04;;;;;;;4.72;0.70;;;;;;;32.26;17.56;99968.59;7737818;32;39086;-76
2022/07/13 12:51:20;;;;;;;1.73;0.80;;;;;;;32.32;17.81;99972.53;7737831;32;39985;-81
2022/07/13 12:55:56;;;;;;;1.05;0.65;;;;;;;32.48;16.54;99964.34;7737564;32;37961;-83
2022/07/13 13:00:13;;;;;;;3.30;0.80;;;;;;;32.75;17.03;99966.50;7738070;32;37284;-76
2022/07/13 13:04:36;;;;;;;1.77;0.88;;;;;;;33.39;16.46;99967.00;7737348;32;37932;-76
2022/07/13 13:09:10;;;;;;;1.30;0.60;;;;;;;32.24;17.84;99954.09;7737565;32;39936;-76
2022/07/13 13:13:26;;;;;;;1.20;0.73;;;;;;;32.71;15.62;99965.75;7737152;32;38689;-75
2022/07/13 13:17:42;;;;;;;0.93;0.70;;;;;;;33.09;15.67;99946.75;7737553;32;37128;-75
2022/07/13 13:21:58;;;;;;;0.90;0.50;;;;;;;33.87;15.94;99937.66;7730490;32;145163;-76
2022/07/13 13:26:14;;;;;;;1.10;0.57;;;;;;;33.66;15.18;99944.41;7736632;32;40797;-75
2022/07/13 13:30:45;;;;;;;2.55;0.75;;;;;;;34.26;16.04;99953.22;7658183;32;37671;-75
2022/07/13 13:35:01;;;;;;;0.70;0.70;;;;;;;34.74;14.82;99943.47;7657404;32;37703;-76
2022/07/13 13:39:18;;;;;;;1.37;0.70;;;;;;;34.27;15.03;99951.97;7657539;32;39319;-76
2022/07/13 13:43:34;;;;;;;6.03;0.75;;;;;;;34.53;15.24;99939.00;7657251;32;40969;-76
2022/07/13 13:47:51;;;;;;;3.20;0.60;;;;;;;35.43;14.66;99925.87;7681612;32;37932;-77
2022/07/13 13:52:07;;;;;;;0.98;0.50;;;;;;;35.47;13.75;99942.81;7683433;32;37115;-83
2022/07/13 13:56:24;;;;;;;1.65;0.52;;;;;;;35.60;13.85;99940.06;7683541;32;39685;-83
2022/07/13 14:00:40;;;;;;;1.25;0.60;;;;;;;35.65;13.78;99937.53;7683557;32;40612;-85
2022/07/13 14:04:56;;;;;;;2.35;0.70;;;;;;;34.94;14.34;99922.84;7683295;32;38093;-86
2022/07/13 14:09:12;;;;;;;1.10;0.62;;;;;;;35.13;14.65;99927.72;7668070;32;37415;-84
2022/07/13 14:13:28;;;;;;;0.70;0.55;;;;;;;34.65;14.94;99926.25;7659915;32;39318;-75
2022/07/13 14:17:48;;;;;;;0.73;0.43;;;;;;;35.12;14.46;99917.63;7679402;32;40818;-75
2022/07/13 14:22:10;;;;;;;1.55;0.70;;;;;;;35.10;14.45;99905.09;7678089;32;37943;-76
2022/07/13 14:26:33;;;;;;;0.95;0.62;;;;;;;34.83;14.44;99903.25;7683917;32;37115;-77
2022/07/13 14:30:49;;;;;;;1.48;0.70;;;;;;;34.23;14.80;99908.81;7735425;32;39244;-76
2022/07/13 14:35:08;;;;;;;1.35;0.77;;;;;;;34.26;15.41;99912.81;7737741;32;39993;-76
2022/07/13 14:39:25;;;;;;;4.87;0.90;;;;;;;34.97;14.89;99899.31;7739275;32;36729;-77
2022/07/13 14:43:41;;;;;;;0.77;0.75;;;;;;;34.78;15.25;99907.38;7736143;32;36906;-77
2022/07/13 14:47:58;;;;;;;1.12;0.60;;;;;;;34.91;14.52;99909.56;7746235;32;39117;-78
2022/07/13 14:52:19;;;;;;;3.20;0.77;;;;;;;35.12;13.93;99899.84;7735336;32;38671;-75
2022/07/13 14:56:35;;;;;;;2.30;0.93;;;;;;;34.30;14.58;99902.22;7735281;32;37638;-76
2022/07/13 15:00:51;;;;;;;7.35;1.00;;;;;;;34.29;15.47;99894.97;7738355;32;37694;-77
2022/07/13 15:05:12;;;;;;;5.18;0.70;;;;;;;33.58;15.33;99895.69;7738189;32;39883;-76
2022/07/13 15:09:29;;;;;;;4.12;0.55;;;;;;;33.76;15.30;99897.47;7738264;32;40915;-77
2022/07/13 15:14:05;;;;;;;0.40;0.40;;;;;;;34.64;14.60;99870.06;7738387;32;39226;-76
2022/07/13 15:18:21;;;;;;;3.33;0.70;;;;;;;34.15;14.69;99891.16;7738556;32;37110;-76
2022/07/13 15:22:37;;;;;;;1.65;0.65;;;;;;;33.53;14.52;99896.19;7739109;32;39271;-76
2022/07/13 15:26:53;;;;;;;2.37;0.80;;;;;;;33.62;14.32;99879.47;7738333;32;39915;-75
2022/07/13 15:31:09;;;;;;;1.80;0.90;;;;;;;33.53;14.08;99882.03;7738749;32;37866;-75
2022/07/13 15:35:26;;;;;;;2.70;0.68;;;;;;;33.42;14.69;99881.41;7738462;32;37120;-76
2022/07/13 15:39:42;;;;;;;0.93;0.70;;;;;;;33.46;14.61;99876.47;7750235;32;39444;-76
2022/07/13 15:44:01;;;;;;;2.92;0.60;;;;;;;33.13;14.33;99874.13;7738117;32;39991;-76
2022/07/13 15:48:17;;;;;;;3.33;0.80;;;;;;;33.02;14.50;99872.66;7738117;32;37691;-75
2022/07/13 15:52:33;;;;;;;0.90;0.50;;;;;;;33.11;14.67;99870.87;7738568;32;36867;-75
2022/07/13 15:56:55;;;;;;;6.25;0.85;;;;;;;33.48;14.12;99871.22;7738545;32;40549;-75
2022/07/13 16:01:11;;;;;;;0.52;0.45;;;;;;;33.77;13.84;99873.59;7737956;32;39957;-75
2022/07/13 16:05:27;;;;;;;0.98;0.60;;;;;;;33.79;13.62;99868.31;7738347;32;37916;-75
2022/07/13 16:09:43;;;;;;;2.15;0.80;;;;;;;33.92;13.55;99868.53;7738630;32;36919;-76
2022/07/13 16:13:59;;;;;;;0.77;0.25;;;;;;;33.31;13.59;99868.22;7737887;32;40273;-75
2022/07/13 16:18:15;;;;;;;3.08;0.82;;;;;;;33.95;12.86;99859.97;7738479;32;40524;-75
2022/07/13 16:22:31;;;;;;;0.60;0.60;;;;;;;33.68;11.99;99858.03;7737947;32;37936;-75
2022/07/13 16:26:47;;;;;;;3.15;0.57;;;;;;;33.52;12.27;99865.53;7737792;32;37034;-75
2022/07/13 16:31:06;;;;;;;2.53;0.60;;;;;;;33.42;12.56;99862.41;7738294;32;40140;-74
2022/07/13 16:35:22;;;;;;;2.95;0.70;;;;;;;33.17;13.19;99859.16;7737610;32;39981;-74
2022/07/13 16:39:38;;;;;;;0.75;0.70;;;;;;;33.37;12.81;99856.44;7737377;32;38620;-74
2022/07/13 16:43:54;;;;;;;1.10;0.70;;;;;;;33.11;12.36;99853.16;7737419;32;37309;-74
2022/07/13 16:48:10;;;;;;;0.60;0.50;;;;;;;33.16;11.94;99858.34;7737945;32;40112;-74
2022/07/13 16:52:27;;;;;;;0.68;0.55;;;;;;;33.02;12.09;99853.69;7737679;32;39693;-74
2022/07/13 16:56:44;;;;;;;0.68;0.60;;;;;;;33.26;11.94;99853.78;7736725;32;37812;-74
2022/07/13 17:01:00;;;;;;;3.33;0.70;;;;;;;33.36;12.42;99863.31;7734442;32;37115;-74
2022/07/13 17:05:16;;;;;;;1.05;0.60;;;;;;;32.95;13.33;99867.91;7734193;32;40083;-73
2022/07/13 17:09:32;;;;;;;6.05;0.90;;;;;;;33.20;12.82;99856.31;7734234;32;39991;-74
2022/07/13 17:13:48;;;;;;;2.58;0.80;;;;;;;33.00;13.01;99864.59;7735837;32;38701;-74
2022/07/13 17:18:04;;;;;;;2.10;0.68;;;;;;;32.97;12.83;99867.47;7737885;32;37880;-74
2022/07/13 17:22:20;;;;;;;0.65;0.60;;;;;;;32.75;13.06;99864.91;7737489;32;39416;-75
2022/07/13 17:26:37;;;;;;;0.73;0.73;;;;;;;32.53;13.57;99869.97;7736752;32;39978;-75
2022/07/13 17:30:53;;;;;;;0.98;0.88;;;;;;;32.29;13.52;99872.66;7737578;32;37680;-75
2022/07/13 17:35:10;;;;;;;0.82;0.52;;;;;;;31.95;14.14;99866.91;7737351;32;37927;-75
2022/07/13 17:39:26;;;;;;;3.95;0.75;;;;;;;32.12;13.20;99880.06;7737160;32;39606;-75
2022/07/13 17:43:42;;;;;;;2.35;0.80;;;;;;;31.80;13.86;99874.69;7736510;32;39895;-74
2022/07/13 17:48:00;;;;;;;0.60;0.60;;;;;;;31.87;13.65;99871.00;7737786;32;39517;-75
2022/07/13 17:52:17;;;;;;;0.77;0.50;;;;;;;31.56;13.42;99866.03;7726543;32;36853;-75
2022/07/13 17:56:32;;;;;;;6.93;1.08;;;;;;;31.50;13.90;99873.31;7726447;32;39343;-81
2022/07/13 18:00:49;;;;;;;5.10;0.95;;;;;;;31.17;14.33;99866.25;7734412;32;40678;-77
2022/07/13 18:05:08;;;;;;;1.23;0.80;;;;;;;31.20;14.53;99868.22;7726584;32;37776;-78
2022/07/13 18:09:24;;;;;;;4.40;1.10;;;;;;;31.14;14.74;99872.69;7735480;32;37333;-78
2022/07/13 18:13:40;;;;;;;2.90;0.80;;;;;;;31.17;15.07;99872.66;7735101;32;40025;-78
2022/07/13 18:17:56;;;;;;;1.77;0.70;;;;;;;31.23;14.86;99873.03;7724254;32;39867;-77
2022/07/13 18:22:12;;;;;;;3.20;0.82;;;;;;;30.63;15.56;99886.13;7709861;32;37884;-77
2022/07/13 18:26:29;;;;;;;3.45;1.10;;;;;;;30.65;16.26;99875.25;7721522;32;37171;-77
2022/07/13 18:30:45;;;;;;;6.18;0.98;;;;;;;30.32;17.23;99878.16;7736222;32;40223;-77
2022/07/13 18:35:07;;;;;;;1.73;1.02;;;;;;;30.08;17.65;99881.78;7735930;32;40627;-78
2022/07/13 18:39:24;;;;;;;7.57;1.10;;;;;;;29.88;17.85;99889.81;7736116;32;37963;-77
2022/07/13 18:43:40;;;;;;;2.60;0.98;;;;;;;29.72;17.84;99893.00;7735421;32;37052;-76
2022/07/13 18:47:56;;;;;;;2.22;0.80;;;;;;;29.49;17.96;99899.78;7721817;32;40117;-78
2022/07/13 18:52:12;;;;;;;3.78;0.90;;;;;;;29.23;17.97;99902.94;7736383;32;40978;-78
2022/07/13 18:56:28;;;;;;;2.40;0.82;;;;;;;29.19;18.48;99909.31;7736005;32;37925;-83
2022/07/13 19:00:45;;;;;;;6.30;1.20;;;;;;;29.14;18.50;99912.50;7736375;32;36802;-74
2022/07/13 19:05:02;;;;;;;2.47;1.00;;;;;;;29.04;19.24;99913.25;7736172;32;40040;-74
2022/07/13 19:09:18;;;;;;;6.32;1.02;;;;;;;28.97;19.49;99916.81;7736086;32;41495;-74
2022/07/13 19:13:34;;;;;;;27.62;2.45;;;;;;;28.77;20.27;99910.72;7735266;32;37851;-75
2022/07/13 19:17:50;;;;;;;7.90;0.95;;;;;;;28.53;20.37;99917.78;7735956;32;37355;-74
2022/07/13 19:22:06;;;;;;;3.12;0.73;;;;;;;28.47;20.54;99917.31;7738426;32;39291;-76
2022/07/13 19:30:57;;;;;;;4.57;0.88;;;;;;;28.45;19.43;99925.31;7738910;32;37626;-77
2022/07/13 19:35:14;;;;;;;1.00;1.00;;;;;;;28.13;20.21;99929.88;7739171;32;37296;-77
2022/07/13 19:39:30;;;;;;;5.78;0.73;;;;;;;27.90;21.11;99939.28;7739458;32;39422;-75
2022/07/13 19:43:46;;;;;;;6.12;0.88;;;;;;;27.80;21.75;99937.97;7738952;32;40050;-76
2022/07/13 19:48:02;;;;;;;0.93;0.70;;;;;;;27.32;22.42;99952.69;7738910;32;37981;-77
2022/07/13 19:52:18;;;;;;;1.73;0.80;;;;;;;27.16;22.93;99955.66;7739459;32;37977;-76
2022/07/13 19:56:34;;;;;;;1.42;0.90;;;;;;;27.26;22.23;99954.16;7738448;32;40260;-76
2022/07/13 20:00:50;;;;;;;2.80;0.80;;;;;;;26.98;22.36;99961.00;7750521;32;39919;-76
2022/07/13 20:05:10;;;;;;;3.35;1.20;;;;;;;26.79;23.41;99972.34;7739065;32;38656;-76
2022/07/13 20:09:26;;;;;;;1.00;0.90;;;;;;;26.80;23.33;99962.75;7750322;32;37905;-76
2022/07/13 20:13:42;;;;;;;1.45;0.88;;;;;;;26.59;23.25;99969.59;7738993;32;40120;-76
2022/07/13 20:17:58;;;;;;;1.00;0.90;;;;;;;26.43;23.51;99978.16;7738973;32;40784;-77
2022/07/13 20:22:14;;;;;;;2.03;1.10;;;;;;;26.34;24.11;99982.41;7738581;32;39465;-75
2022/07/13 20:26:30;;;;;;;1.95;0.90;;;;;;;26.24;24.90;99975.47;7738731;32;36912;-76
2022/07/13 20:30:46;;;;;;;3.30;1.20;;;;;;;26.04;25.58;99983.91;7738300;32;40087;-76